Date,TemperatureHighF,TemperatureAvgF,TemperatureLowF,DewpointHighF,DewpointAvgF,DewpointLowF,HumidityHigh,HumidityAvg,HumidityLow,PressureMaxIn,PressureMinIn,WindSpeedMaxMPH,WindSpeedAvgMPH,GustSpeedMaxMPH,PrecipitationSumIn
2013-1-3,42.8,32.7,27.7,25.2,23.4,21.1,83,69,48,29.92,29.92,2,0,4,1.18
2013-1-4,46.4,34.5,25.0,24.8,21.4,17.9,77,61,38,29.92,29.92,3,0,5,0.00
2013-1-5,49.1,37.5,25.5,36.9,27.5,19.3,92,69,43,29.92,29.92,2,0,8,0.06
2013-1-6,50.4,41.9,33.8,41.0,34.2,27.7,95,75,61,29.92,29.92,6,0,57,0.00
2013-1-7,52.9,37.3,26.8,31.0,26.3,20.9,83,67,40,29.92,29.92,4,0,11,0.00
2013-1-8,62.1,48.5,36.7,44.6,36.7,27.4,77,65,46,29.92,29.92,2,0,8,0.00
2013-1-9,59.0,55.1,50.2,56.8,52.2,43.9,95,90,76,29.92,29.92,1,0,4,0.58
2013-1-10,65.8,61.4,57.6,60.5,58.1,54.6,95,89,82,29.92,29.92,5,0,14,0.02
2013-1-11,69.6,65.1,62.2,64.5,61.6,59.5,96,89,78,29.92,29.92,4,0,11,0.07
2013-1-12,70.7,67.2,64.9,66.5,63.3,57.8,96,88,76,29.92,29.92,4,0,8,0.06
2013-1-13,70.0,60.2,39.9,65.0,56.4,36.7,95,88,77,29.92,29.92,6,0,10,1.10
2013-1-14,40.1,29.7,0.0,37.1,32.1,29.0,91,75,84,29.92,29.92,7,0,10,1.17
2013-1-15,38.8,35.8,34.0,37.8,33.6,31.1,96,91,89,29.92,29.92,2,0,4,2.19
2013-1-16,37.9,36.9,35.8,36.6,34.7,33.0,95,92,89,29.92,29.92,2,0,8,0.39
2013-1-17,41.0,36.8,32.9,36.6,31.2,25.0,94,80,65,29.92,29.92,8,1,11,0.27
2013-1-18,50.7,38.9,27.9,35.7,28.7,22.8,86,69,49,29.92,29.92,2,0,5,0.00
2013-1-19,56.5,41.2,0.0,31.5,28.0,24.3,76,61,34,29.92,29.92,3,0,8,0.00
2013-1-20,47.3,42.4,31.8,37.4,32.7,25.7,88,69,63,29.92,29.92,3,0,14,0.00
2013-1-21,47.3,44.0,27.7,35.5,30.6,10.8,64,60,38,29.92,29.92,4,1,7,0.00
2013-1-22,38.1,30.8,13.5,15.7,10.0,-13.1,61,44,26,29.92,29.92,6,2,49,0.00
2013-1-23,49.1,42.3,30.7,36.7,23.7,15.5,64,49,42,29.92,29.92,4,0,14,0.00
2013-1-24,48.6,40.3,32.9,36.7,20.3,10.4,73,48,30,29.92,29.92,14,2,22,0.00
2013-1-25,45.0,43.6,37.4,25.8,23.3,10.7,48,46,38,29.92,29.92,3,1,11,0.00
2013-1-26,45.0,45.0,45.0,25.8,25.8,25.8,48,48,48,29.92,29.92,2,2,4,0.00
2013-1-27,45.0,45.0,45.0,25.8,25.8,25.8,48,48,48,29.92,29.92,2,2,4,0.00
2013-1-28,45.0,45.0,45.0,25.8,25.8,25.8,48,48,48,29.92,29.92,2,2,4,0.00
2013-1-29,45.0,45.0,45.0,25.8,25.8,25.8,48,48,48,29.92,29.92,2,2,4,0.00
2013-1-30,45.0,45.0,45.0,25.8,25.8,25.8,48,48,48,29.92,29.92,2,2,4,0.00
2013-2-3,58.1,44.3,34.3,37.2,28.2,24.3,77,56,34,29.92,29.92,11,0,21,0.00
2013-2-4,53.6,42.5,29.7,36.4,31.2,25.9,89,67,39,29.92,29.92,0,0,2,0.00
2013-2-5,65.7,51.4,41.0,48.9,43.6,36.1,99,77,48,29.92,29.92,0,0,2,0.04
2013-2-6,66.0,49.5,32.9,46.3,36.9,30.6,99,69,32,29.92,29.92,2,0,4,0.00
2013-2-7,63.1,52.5,46.8,49.0,45.0,34.0,97,77,59,29.92,29.92,0,0,0,0.02
2013-2-8,58.8,44.5,34.0,48.3,40.5,28.8,99,87,67,29.92,29.92,0,0,1,0.28
2013-2-9,64.0,45.5,31.1,36.4,30.2,22.0,98,61,25,29.92,29.92,4,0,8,0.00
2013-2-10,61.7,52.5,49.1,57.7,44.7,29.6,99,78,51,29.92,29.92,4,0,12,0.43
2013-2-11,59.2,53.0,44.4,58.9,46.7,29.4,99,81,53,29.92,29.92,0,0,0,0.02
2013-2-12,62.8,45.8,41.0,41.4,36.6,26.5,92,73,44,29.92,29.92,0,0,1,0.22
2013-2-13,47.5,43.0,37.9,44.6,40.3,34.7,98,90,80,29.92,29.92,0,0,0,0.05
2013-2-14,61.3,44.6,29.8,42.6,35.3,28.9,99,74,34,29.92,29.92,0,0,2,0.00
2013-2-15,57.9,44.1,34.5,43.1,34.9,27.6,98,72,45,29.92,29.92,10,0,20,0.00
2013-2-16,47.5,32.4,25.9,27.6,16.3,10.1,68,53,25,29.99,29.88,17,1,26,0.00
2013-2-17,55.4,33.9,15.4,23.4,14.8,7.8,84,51,18,30.08,29.96,2,0,6,0.00
2013-2-18,63.7,49.2,34.3,42.8,28.7,17.4,91,48,34,30.03,29.67,3,1,9,0.18
2013-2-19,53.2,49.6,42.1,47.8,27.2,13.9,98,52,25,29.91,29.69,5,2,13,0.12
2013-2-20,52.5,52.5,52.5,14.9,14.9,14.9,25,25,25,29.89,29.89,2,2,13,0.12
2013-2-21,52.5,52.5,52.5,14.9,14.9,14.9,25,25,25,29.89,29.89,2,2,13,0.12
2013-2-22,52.5,52.5,52.5,14.9,14.9,14.9,25,25,25,29.89,29.89,2,2,13,0.12
2013-2-23,57.4,50.8,0.0,46.5,38.3,14.9,98,69,25,29.95,29.85,2,1,13,0.63
2013-2-24,51.4,51.4,51.4,43.7,43.7,43.7,75,75,75,29.86,29.86,0,0,2,0.63
2013-2-25,51.8,51.0,47.1,45.4,43.7,41.1,93,76,68,29.92,29.69,4,0,12,0.63
2013-2-26,50.2,44.6,38.8,45.9,40.4,34.3,97,86,66,29.97,29.63,4,1,11,0.14
2013-2-27,58.6,45.1,39.2,38.3,34.2,31.3,80,67,46,30.12,29.97,4,1,11,0.00
2013-2-28,41.0,38.1,34.5,34.6,28.0,25.4,79,67,58,30.25,30.06,4,1,10,0.00
2013-3-1,42.3,36.9,34.7,31.1,29.5,27.2,82,75,58,30.24,30.19,3,0,10,0.00
2013-3-2,36.3,34.3,28.9,31.0,29.1,24.6,88,81,78,30.20,29.92,4,1,10,0.04
2013-3-3,54.1,33.9,25.3,25.3,19.0,7.7,84,60,21,30.02,29.41,5,1,12,0.00
2013-3-4,64.6,46.3,28.0,39.6,27.4,21.6,83,53,26,30.00,29.75,3,0,6,0.00
2013-3-5,57.7,55.7,52.7,56.1,52.9,38.1,99,91,61,29.78,29.56,3,1,8,0.53
2013-3-6,56.3,56.3,56.3,56.0,56.0,56.0,99,99,99,29.61,29.61,2,2,8,0.53
2013-3-7,56.3,56.3,56.3,56.0,56.0,56.0,99,99,99,29.61,29.61,2,2,8,0.53
2013-3-8,56.3,56.3,56.3,56.0,56.0,56.0,99,99,99,29.61,29.61,2,2,8,0.53
2013-3-9,56.3,56.3,56.3,56.0,56.0,56.0,99,99,99,29.61,29.61,2,2,8,0.53
2013-3-10,56.3,56.3,56.3,56.0,56.0,56.0,99,99,99,29.61,29.61,2,2,8,0.53
2013-3-11,56.3,51.2,39.7,56.0,49.0,34.4,99,93,76,29.83,29.60,4,1,8,1.06
2013-3-12,65.8,42.7,39.0,34.7,33.3,28.1,81,72,27,30.02,29.83,3,1,8,1.06
2013-3-13,57.2,41.6,30.6,30.5,25.0,18.1,84,55,23,30.20,29.98,6,1,12,0.00
2013-3-14,64.4,41.4,25.3,26.4,21.8,16.3,77,50,17,30.27,30.07,4,0,8,0.00
2013-3-15,83.3,58.3,38.1,47.9,37.8,24.1,62,48,27,30.07,29.79,3,0,9,0.00
2013-3-16,85.5,64.6,51.6,49.4,45.7,42.7,74,53,27,29.82,29.70,3,0,9,0.00
2013-3-17,80.4,62.5,51.3,56.2,50.0,45.7,90,66,34,29.82,29.67,2,0,7,0.00
2013-3-18,62.6,59.0,48.4,61.3,55.9,45.0,99,90,76,29.80,29.58,6,1,15,0.43
2013-3-19,69.6,49.9,33.4,44.8,33.1,17.9,99,60,16,30.00,29.80,5,1,11,0.00
2013-3-20,64.6,47.4,36.3,30.0,23.3,14.3,71,40,21,30.01,29.83,5,1,14,0.00
2013-3-21,65.8,38.6,24.4,29.5,18.0,11.2,75,47,17,29.93,29.78,4,1,11,0.00
2013-3-22,54.3,44.8,38.7,38.9,31.4,21.7,80,60,43,29.88,29.78,2,0,4,0.02
2013-3-23,45.5,44.3,43.7,43.5,43.1,38.7,96,95,81,29.80,29.72,2,0,3,0.19
2013-3-24,58.8,45.8,40.3,54.7,42.2,29.3,96,88,56,30.20,29.75,7,1,17,1.10
2013-3-25,40.1,34.9,33.4,27.6,25.4,23.4,75,68,53,30.58,30.25,4,1,14,0.00
2013-3-26,43.7,36.3,31.3,29.7,27.0,24.9,81,69,55,30.78,26.93,117,1,117,0.00
2013-3-27,66.9,41.0,24.8,33.1,27.6,22.0,92,64,24,30.83,30.71,4,0,9,0.00
2013-3-28,74.8,48.5,30.0,35.1,31.1,27.0,90,58,19,30.81,30.69,4,0,8,0.00
2013-3-29,73.2,48.6,35.2,39.6,35.2,32.1,89,65,26,30.73,30.66,2,0,8,0.00
2013-3-31,55.6,54.7,52.9,55.1,54.4,52.6,99,99,98,29.96,29.93,2,0,4,0.91
2013-4-1,76.1,58.3,47.8,55.4,48.6,38.1,99,74,36,30.14,29.95,3,1,8,0.00
2013-4-2,59.7,48.7,40.5,40.4,29.9,24.3,69,50,29,30.27,30.12,4,2,10,0.00
2013-4-3,59.4,48.3,41.5,42.9,32.8,24.8,87,57,30,30.24,30.14,4,1,11,0.01
2013-4-4,46.9,44.8,43.5,45.4,43.2,40.4,97,94,84,30.16,30.00,2,0,6,0.00
2013-4-5,77.2,54.1,43.3,47.6,41.1,34.1,99,69,22,30.14,29.91,5,1,10,0.00
2013-4-6,86.9,59.4,37.4,46.0,39.6,35.7,95,56,18,30.03,29.88,2,0,5,0.12
2013-4-7,84.0,63.6,48.2,53.1,47.1,39.5,81,58,30,30.00,29.85,2,0,8,0.00
2013-4-8,89.4,69.4,55.2,60.2,55.4,48.5,87,64,36,29.95,29.83,2,0,8,0.00
2013-4-9,95.0,73.0,57.9,64.5,58.8,54.1,88,64,32,30.01,29.84,2,0,7,0.00
2013-4-10,98.4,76.4,57.6,61.8,58.2,53.7,91,58,25,29.93,29.70,2,0,7,0.00
2013-4-11,81.0,67.5,53.1,65.7,60.8,52.1,99,80,57,29.72,29.44,5,1,13,0.87
2013-4-12,76.3,55.0,41.9,52.3,43.2,38.2,98,70,28,29.85,29.57,4,1,10,0.01
2013-4-13,87.4,59.1,40.6,47.1,42.9,39.0,97,63,20,29.97,29.84,4,0,8,0.00
2013-4-14,73.8,59.3,48.2,57.9,48.2,39.7,87,68,43,29.87,29.72,3,0,8,0.00
2013-4-15,91.2,70.1,50.7,63.0,58.3,49.3,97,70,37,29.91,29.76,2,0,5,0.00
2013-4-16,92.8,73.8,64.0,70.3,64.8,41.6,88,75,48,30.03,29.81,2,0,6,0.00
2013-4-17,96.8,78.6,67.3,70.7,66.2,63.4,90,68,37,30.04,29.87,2,0,5,0.00
2013-4-18,89.6,75.3,66.0,65.0,62.6,59.5,90,67,38,29.87,29.55,2,0,9,0.00
2013-4-19,74.7,51.2,36.0,66.8,43.5,32.2,98,77,39,30.02,29.52,4,1,15,1.23
2013-4-20,98.2,50.5,32.0,41.4,33.6,28.7,97,61,20,30.14,29.78,5,1,11,0.00
2013-4-21,85.6,59.9,42.8,44.5,38.9,34.2,75,50,19,30.21,30.07,2,0,5,0.00
2013-4-22,87.3,65.2,51.4,51.1,46.2,40.9,71,53,23,30.14,29.97,2,0,7,0.00
2013-4-23,88.2,68.8,52.3,56.6,50.6,43.0,82,56,31,30.04,29.87,2,0,5,0.00
2013-4-24,77.0,59.5,50.9,60.3,54.3,45.5,95,83,72,30.05,29.71,4,0,11,0.27
2013-4-26,61.9,56.5,53.1,51.2,48.5,45.1,92,76,55,30.04,29.91,4,1,9,0.07
2013-4-27,77.2,63.3,53.4,66.1,57.8,50.7,95,83,67,29.98,29.68,3,0,8,0.13
2013-4-28,67.6,62.0,57.0,66.5,60.7,56.5,99,96,86,29.71,29.60,2,0,5,0.47
2013-4-29,88.3,65.9,52.9,62.0,56.8,50.9,99,77,33,29.73,29.62,2,0,5,0.01
2013-4-30,95.2,68.2,47.8,61.7,54.8,47.3,99,68,28,29.73,29.64,2,0,4,0.00
2013-5-1,87.3,71.6,64.0,63.0,59.6,54.1,87,67,42,29.83,29.71,3,0,6,0.00
2013-5-2,77.7,67.4,59.9,62.5,57.8,53.2,84,72,59,29.85,29.75,2,0,6,0.00
2013-5-3,80.4,65.5,45.7,60.8,56.4,44.7,97,74,48,29.76,29.55,3,1,11,0.27
2013-5-4,55.9,46.2,40.8,47.7,43.9,40.3,99,92,70,29.69,28.16,3,0,8,1.62
2013-5-5,63.5,49.9,42.1,50.7,47.0,41.6,99,91,55,29.61,29.51,4,0,9,0.46
2013-5-6,68.7,52.4,48.6,57.9,51.2,48.3,99,96,63,29.63,29.48,3,0,7,1.32
2013-5-7,75.6,56.9,42.8,57.7,51.0,42.5,99,83,49,29.71,29.59,3,0,7,0.00
2013-5-8,89.8,66.4,50.5,65.0,57.2,50.2,99,76,36,29.77,29.68,3,0,9,0.00
2013-5-9,94.1,71.3,53.2,64.8,59.2,52.7,99,70,33,29.83,29.70,1,0,4,0.00
2013-5-10,86.2,67.3,60.8,67.7,61.6,58.8,97,83,50,29.75,29.61,1,0,5,0.13
2013-5-11,70.5,66.8,62.1,65.9,63.6,60.7,97,90,83,29.68,29.62,0,0,2,0.00
2013-5-12,68.5,68.5,68.5,64.5,64.5,64.5,87,87,87,29.67,29.67,0,0,2,0.00
2013-5-13,68.5,68.5,68.5,64.5,64.5,64.5,87,87,87,29.67,29.67,0,0,2,0.00
2013-5-14,68.5,68.5,68.5,64.5,64.5,64.5,87,87,87,29.67,29.67,0,0,2,0.00
2013-5-15,68.5,68.5,68.5,64.5,64.5,64.5,87,87,87,29.67,29.67,0,0,2,0.00
2013-5-16,68.5,68.5,68.5,64.5,64.5,64.5,87,87,87,29.67,29.67,0,0,2,0.00
2013-5-17,68.5,67.8,65.3,66.4,64.7,64.5,99,90,87,29.95,29.67,1,0,2,0.65
2013-5-18,89.1,75.5,65.3,74.8,69.8,65.0,99,84,56,29.99,29.91,1,0,3,0.01
2013-5-19,95.9,77.5,63.5,76.2,70.1,60.8,99,80,47,30.01,29.92,2,0,4,0.01
2013-5-20,65.5,65.1,62.2,63.2,62.7,60.4,94,92,90,29.98,29.94,0,0,2,0.00
2013-5-21,65.5,65.5,65.5,63.1,63.1,63.1,92,92,92,29.98,29.98,0,0,1,0.00
2013-5-22,67.1,65.4,63.9,64.1,63.2,62.9,98,92,90,29.98,29.92,0,0,1,0.07
2013-5-23,91.0,72.6,60.6,68.5,61.2,56.3,99,72,33,30.10,29.95,4,1,14,0.00
2013-5-24,87.8,65.7,53.4,56.7,51.2,42.8,92,63,24,30.31,30.10,5,1,11,0.00
2013-5-25,93.9,67.2,47.3,53.7,47.4,33.9,95,57,13,30.36,30.22,2,0,6,0.00
2013-5-26,104.5,73.4,51.8,60.5,54.3,49.1,92,58,18,30.28,30.17,2,0,5,0.00
2013-5-27,68.5,68.5,68.5,55.9,55.9,55.9,64,64,64,30.19,30.19,0,0,0,0.00
2013-5-28,68.5,68.5,68.5,55.9,55.9,55.9,64,64,64,30.19,30.19,0,0,0,0.00
2013-5-29,68.5,68.5,68.5,55.9,55.9,55.9,64,64,64,30.19,30.19,0,0,0,0.00
2013-5-30,68.5,68.5,68.5,55.9,55.9,55.9,64,64,64,30.19,30.19,0,0,0,0.00
2013-5-31,68.5,68.5,68.5,55.9,55.9,55.9,64,64,64,30.19,30.19,0,0,0,0.00
2013-6-5,71.1,68.9,66.7,70.2,68.5,66.5,99,99,96,29.93,29.90,0,0,2,0.41
2013-6-6,102.9,76.9,64.4,74.1,68.9,64.1,99,79,35,29.92,29.77,2,0,6,0.00
2013-6-7,86.0,75.3,68.4,70.6,68.2,66.0,99,80,54,29.85,29.76,3,0,6,0.00
2013-6-8,77.9,77.9,77.9,67.4,67.4,67.4,70,70,70,29.84,29.84,1,1,6,0.00
2013-6-9,77.9,77.9,77.9,67.4,67.4,67.4,70,70,70,29.84,29.84,1,1,6,0.00
2013-6-10,77.9,77.9,77.9,67.4,67.4,67.4,70,70,70,29.84,29.84,1,1,6,0.00
2013-6-11,77.9,77.9,77.9,67.4,67.4,67.4,70,70,70,29.84,29.84,1,1,6,0.00
2013-6-16,94.1,77.7,73.2,71.2,68.3,67.0,86,74,47,29.96,29.92,1,0,3,0.00
2013-6-17,98.4,77.3,69.4,76.4,70.9,67.1,99,83,40,29.98,29.84,3,0,8,0.69
2013-6-18,90.5,75.4,67.5,75.9,69.4,64.6,99,83,49,29.90,29.79,6,1,12,0.53
2013-6-19,104.4,78.6,64.0,71.4,67.1,62.5,99,72,28,29.99,28.45,4,0,8,0.00
2013-6-20,106.2,84.8,66.4,74.2,69.2,66.1,99,64,32,30.11,29.99,1,0,3,0.00
2013-6-21,92.7,92.7,92.7,68.3,68.3,68.3,45,45,45,30.03,30.03,0,0,2,0.00
2013-6-22,92.7,92.7,92.7,68.3,68.3,68.3,45,45,45,30.03,30.03,0,0,2,0.00
2013-6-23,92.7,92.7,92.7,68.3,68.3,68.3,45,45,45,30.03,30.03,0,0,2,0.00
2013-7-6,77.0,73.6,69.6,75.6,72.2,69.4,99,95,89,29.93,29.86,0,0,2,2.10
2013-7-7,99.7,80.7,70.0,78.7,73.3,69.5,99,80,49,29.95,29.87,2,0,3,0.04
2013-7-8,84.4,84.4,84.4,73.2,73.2,73.2,69,69,69,29.87,29.87,0,0,2,0.00
2013-7-9,84.4,83.3,75.4,73.9,73.2,72.4,93,72,69,29.95,29.87,0,0,2,0.05
2013-7-10,75.9,73.7,73.6,73.4,72.2,72.0,95,95,93,29.93,29.92,0,0,1,0.00
2013-7-11,73.6,73.6,73.6,72.1,72.1,72.1,95,95,95,29.92,29.92,0,0,0,0.00
2013-7-12,73.6,73.6,73.6,72.1,72.1,72.1,95,95,95,29.92,29.92,0,0,0,0.00
2013-7-13,73.6,73.6,73.6,72.1,72.1,72.1,95,95,95,29.92,29.92,0,0,0,0.00
2013-7-14,73.6,73.6,73.6,72.1,72.1,72.1,95,95,95,29.92,29.92,0,0,0,0.00
2013-7-15,73.6,73.6,73.6,72.1,72.1,72.1,95,95,95,29.92,29.92,0,0,0,0.00
2013-7-16,73.6,73.6,73.6,72.1,72.1,72.1,95,95,95,29.92,29.92,0,0,0,0.00
2013-7-17,73.6,73.6,73.6,72.1,72.1,72.1,95,95,95,29.92,29.92,0,0,0,0.00
2013-7-18,73.6,73.6,73.6,72.1,72.1,72.1,95,95,95,29.92,29.92,0,0,0,0.00
2013-7-19,73.6,73.6,73.6,72.1,72.1,72.1,95,95,95,29.92,29.92,0,0,0,0.00
2013-7-20,73.6,73.6,73.6,72.1,72.1,72.1,95,95,95,29.92,29.92,0,0,0,0.00
2013-7-21,73.6,73.6,73.6,72.1,72.1,72.1,95,95,95,29.92,29.92,0,0,0,0.00
2013-7-22,73.6,73.6,73.6,72.1,72.1,72.1,95,95,95,29.92,29.92,0,0,0,0.00
2013-7-23,73.6,73.6,73.6,72.1,72.1,72.1,95,95,95,29.92,29.92,0,0,0,0.00
2013-7-24,73.6,73.6,73.6,72.1,72.1,72.1,95,95,95,29.92,29.92,0,0,0,0.00
2013-7-25,73.6,73.6,73.6,72.1,72.1,72.1,95,95,95,29.92,29.92,0,0,0,0.00
2013-7-26,73.6,73.6,73.6,72.1,72.1,72.1,95,95,95,29.92,29.92,0,0,0,0.00
2013-7-27,73.6,73.6,73.6,72.1,72.1,72.1,95,95,95,29.92,29.92,0,0,0,0.00
2013-7-28,73.6,73.6,73.6,72.1,72.1,72.1,95,95,95,29.92,29.92,0,0,0,0.00
2013-7-29,73.6,72.9,65.5,72.1,70.9,60.2,95,93,74,29.93,29.92,0,0,2,2.53
2013-7-30,96.8,77.5,62.8,74.6,68.0,60.1,99,75,46,29.96,29.82,3,0,7,0.27
2013-7-31,73.8,71.9,67.5,73.3,71.6,67.2,99,99,99,29.88,29.78,3,0,6,1.45
2013-8-1,72.7,72.7,72.7,72.4,72.4,72.4,99,99,99,29.83,29.83,0,0,2,0.00
2013-8-2,72.7,72.7,72.7,72.4,72.4,72.4,99,99,99,29.83,29.83,0,0,2,0.00
2013-8-5,92.1,78.7,68.2,69.9,67.1,63.7,86,69,44,29.94,29.84,2,0,3,0.05
2013-8-6,87.1,75.8,70.7,78.5,74.4,7.6,99,96,75,30.98,29.80,395,0,395,1.23
2013-8-7,94.5,76.9,71.4,81.3,74.4,70.8,99,93,64,29.88,29.80,2,0,8,0.77
2013-8-8,95.9,76.5,69.1,82.9,73.6,68.6,99,92,63,29.90,29.79,6,0,12,0.60
2013-8-9,95.4,79.5,71.4,81.8,75.5,71.2,99,89,60,29.92,29.85,2,0,8,0.05
2013-8-10,77.2,77.2,77.2,74.4,74.4,74.4,91,91,91,29.91,29.91,0,0,0,0.00
2013-8-11,77.2,77.2,77.2,74.4,74.4,74.4,91,91,91,29.91,29.91,0,0,0,0.00
2013-8-12,77.2,77.1,74.7,74.8,74.4,74.4,99,91,91,29.92,29.89,0,0,1,0.00
2013-8-13,89.4,78.6,71.6,75.9,73.1,70.2,99,84,58,29.93,29.83,4,0,8,0.00
2013-8-14,86.2,74.6,65.5,70.8,65.7,59.2,94,75,47,29.97,29.88,4,1,10,0.00
2013-8-15,88.7,71.8,59.2,73.0,64.8,57.5,95,80,56,29.98,29.92,2,0,4,0.00
2013-8-16,76.6,71.2,63.7,67.4,64.8,61.3,93,81,72,30.01,29.92,1,0,4,0.00
2013-8-17,74.3,69.3,66.7,68.8,65.7,64.0,94,88,81,29.97,29.89,1,0,2,0.00
2013-8-18,82.6,72.3,64.9,73.1,68.7,64.7,99,89,67,30.01,29.92,1,0,2,0.04
2013-8-19,70.5,67.6,66.2,69.7,67.3,65.9,99,99,96,29.96,29.91,1,0,2,0.00
2013-8-20,87.3,69.3,67.3,76.8,68.4,67.0,99,97,71,29.99,26.96,1,0,2,0.14
2013-8-21,73.8,72.5,72.1,73.5,72.2,71.9,99,99,98,29.99,29.95,0,0,1,0.00
2013-8-22,72.3,72.3,72.3,72.1,72.1,72.1,99,99,99,29.99,29.99,0,0,1,0.00
2013-8-23,72.3,72.3,72.3,72.1,72.1,72.1,99,99,99,29.99,29.99,0,0,1,0.00
2013-8-24,99.5,80.3,72.3,76.8,73.3,71.6,99,82,47,29.99,29.87,1,0,2,0.35
2013-8-25,99.7,79.1,67.5,72.8,68.9,65.4,96,73,39,30.08,29.96,1,0,4,0.00
2013-8-26,100.6,76.3,62.2,69.4,65.3,61.4,98,72,35,30.06,29.91,3,0,5,0.00
2013-8-27,100.0,76.5,62.4,72.1,66.8,62.2,99,76,36,29.93,29.81,3,0,5,0.00
2013-8-28,100.6,79.7,65.7,75.2,70.4,65.4,99,76,42,29.85,29.76,4,0,7,0.00
2013-8-29,88.9,81.7,68.2,75.8,72.7,67.9,99,76,61,29.83,29.77,2,0,5,0.00
2013-8-30,88.5,88.5,88.5,74.4,74.4,74.4,63,63,63,29.81,29.81,0,0,5,0.00
2013-8-31,88.5,88.5,88.5,74.4,74.4,74.4,63,63,63,29.81,29.81,0,0,5,0.00
2013-9-1,88.5,88.5,88.5,74.4,74.4,74.4,63,63,63,29.81,29.81,0,0,5,0.00
2013-9-2,88.5,88.5,88.5,74.4,74.4,74.4,63,63,63,29.81,29.81,0,0,5,0.00
2013-9-3,88.5,88.5,88.5,74.4,74.4,74.4,63,63,63,29.81,29.81,0,0,5,0.00
2013-9-4,88.5,88.5,88.5,74.4,74.4,74.4,63,63,63,29.81,29.81,0,0,5,0.00
2013-9-5,88.5,88.5,88.5,74.4,74.4,74.4,63,63,63,29.81,29.81,0,0,5,0.00
2013-9-8,99.7,50.0,43.3,73.2,48.3,43.1,99,95,43,29.90,29.81,2,0,4,0.19
2013-9-9,77.5,49.0,43.3,72.3,48.1,43.1,99,97,82,29.96,29.81,2,0,4,13.88
2013-9-10,103.1,83.0,72.7,77.5,72.4,35.8,94,73,10,30.05,29.95,1,0,2,0.00
2013-9-11,91.9,81.0,70.2,73.8,71.1,67.3,98,74,53,30.08,29.39,0,0,2,0.00
2013-9-12,98.8,78.4,67.8,73.7,70.2,67.3,99,79,41,29.96,29.79,4,0,9,0.15
2013-9-13,87.3,75.2,55.4,70.7,64.4,51.9,99,74,36,29.85,29.39,5,1,11,0.01
2013-9-14,93.2,68.2,50.7,61.7,56.3,49.3,97,69,34,29.93,29.85,3,0,8,0.01
2013-9-15,79.5,61.2,55.0,68.5,58.9,54.8,99,93,69,29.99,29.92,0,0,3,0.00
2013-9-16,96.8,73.7,57.7,67.5,61.1,57.3,99,71,27,30.03,29.95,3,0,8,0.00
2013-9-17,95.0,76.6,64.0,71.4,66.6,62.3,96,74,42,30.04,29.94,0,0,2,0.00
2013-9-18,91.8,74.5,66.6,71.1,66.8,62.1,88,78,50,30.06,29.95,1,0,3,0.00
2013-9-19,99.5,77.6,67.6,72.2,67.2,64.6,91,73,39,30.03,29.90,1,0,4,0.00
2013-9-20,92.8,77.1,64.8,70.9,67.3,63.0,97,74,46,29.92,29.71,1,0,4,0.04
2013-9-21,91.4,68.7,57.2,76.5,65.0,54.4,99,89,49,29.82,29.61,9,1,12,1.95
2013-9-22,90.3,65.5,51.8,58.9,55.7,51.5,99,75,32,29.78,29.71,4,1,10,0.00
2013-9-23,98.6,69.7,52.7,66.9,60.2,52.4,99,76,34,29.85,29.71,2,0,4,0.00
2013-9-24,91.4,69.6,59.5,71.8,66.0,51.7,99,89,66,29.85,29.62,2,0,5,0.01
2013-9-25,68.2,66.7,66.6,67.9,66.4,65.8,99,99,96,29.73,29.67,1,0,2,0.00
2013-9-26,66.7,66.7,66.7,66.5,66.5,66.5,99,99,99,29.68,29.68,0,0,1,0.00
2013-9-27,74.7,66.2,59.5,66.5,64.9,58.1,99,96,62,29.97,29.68,0,0,1,0.00
2013-9-28,97.0,69.2,57.6,63.5,59.9,57.1,99,76,31,30.08,29.94,2,0,4,0.00
2013-9-29,83.8,67.9,58.5,63.7,59.7,56.2,93,77,47,30.00,29.88,2,0,5,0.00
2013-9-30,89.1,68.7,61.9,67.4,62.1,58.6,96,80,48,29.95,29.85,1,0,3,0.05
2013-10-1,97.0,73.1,59.9,72.4,66.0,59.6,99,81,41,30.00,29.89,0,0,3,0.00
2013-10-2,73.0,71.1,70.5,69.0,66.6,66.4,93,85,85,29.94,29.92,1,0,2,0.00
2013-10-3,99.5,75.8,63.0,70.8,66.9,62.7,99,77,38,29.95,29.85,2,0,4,0.00
2013-10-4,97.2,75.8,64.2,73.8,68.3,63.4,97,79,45,29.96,29.88,1,0,4,0.00
2013-10-5,97.5,78.4,68.9,73.9,69.3,66.4,94,76,44,29.92,29.78,1,0,5,0.00
2013-10-6,82.9,71.0,55.2,75.0,66.5,53.8,98,86,67,29.79,29.65,4,0,8,0.05
2013-10-7,78.4,60.0,50.0,55.9,51.3,47.7,99,76,40,29.89,29.75,5,1,12,0.00
2013-10-8,90.1,64.4,50.5,62.4,54.3,47.4,90,72,38,29.93,29.85,3,0,7,0.00
2013-10-9,92.8,69.7,60.3,62.5,57.8,53.0,90,68,36,30.01,26.90,2,0,4,0.00
2013-10-10,93.2,69.1,56.5,67.1,60.8,56.1,99,78,36,29.98,29.85,3,0,7,0.00
2013-10-11,86.7,67.3,53.8,64.8,59.4,53.3,99,79,42,29.93,29.83,3,0,5,0.00
2013-10-12,88.3,67.3,52.0,66.2,59.5,51.7,99,80,42,29.95,29.85,4,0,8,0.00
2013-10-13,89.4,69.8,57.7,65.1,60.5,57.4,99,76,39,30.05,29.94,4,0,7,0.02
2013-10-14,63.0,60.4,60.3,58.9,57.9,57.8,92,92,86,30.02,30.00,1,0,2,0.00
2013-10-15,60.3,60.3,60.3,57.9,57.9,57.9,92,92,92,30.02,30.02,0,0,1,0.00
2013-10-16,60.3,60.3,60.3,57.9,57.9,57.9,92,92,92,30.02,30.02,0,0,1,0.00
2013-10-17,60.3,60.3,60.3,57.9,57.9,57.9,92,92,92,30.02,30.02,0,0,1,0.00
2013-11-9,64.8,54.4,43.3,45.6,42.2,36.0,85,65,42,32.93,29.85,117,0,117,1.05
2013-11-10,70.3,54.9,41.0,51.4,42.7,32.3,99,66,36,29.96,29.88,4,0,9,0.00
2013-11-11,71.8,51.4,34.7,39.4,33.2,26.3,87,55,19,29.94,29.79,2,0,4,0.00
2013-11-12,50.0,41.5,30.7,45.0,29.7,17.0,88,64,42,30.18,29.81,8,3,17,0.00
2013-11-13,50.0,34.3,23.7,23.5,19.5,16.4,86,58,27,30.28,30.07,4,1,11,0.00
2013-11-14,61.9,40.6,20.8,29.7,22.5,18.8,94,55,20,30.08,29.84,2,0,5,0.00
2013-11-15,57.7,50.7,45.7,52.2,43.3,26.6,99,78,47,32.80,29.71,117,0,117,0.14
2013-11-16,68.5,60.1,51.1,61.1,57.1,50.8,99,90,76,29.77,29.66,2,0,7,0.00
2013-11-17,63.3,53.2,48.6,61.7,47.6,41.7,95,81,77,29.67,29.33,2,0,6,0.00
2013-11-18,48.6,48.6,48.6,41.7,41.7,41.7,77,77,77,29.33,29.33,0,0,2,0.00
2013-11-19,48.6,48.6,48.6,41.7,41.7,41.7,77,77,77,29.33,29.33,0,0,2,0.00
2013-11-20,48.6,48.6,48.6,41.7,41.7,41.7,77,77,77,29.33,29.33,0,0,2,0.00
2013-11-21,48.6,48.6,48.6,41.7,41.7,41.7,77,77,77,29.33,29.33,0,0,2,0.00
2013-11-22,48.6,48.6,48.6,41.7,41.7,41.7,77,77,77,29.33,29.33,0,0,2,0.00
2013-11-23,48.6,48.6,48.6,41.7,41.7,41.7,77,77,77,29.33,29.33,0,0,2,0.00
2013-11-24,48.6,31.7,22.6,41.7,18.2,11.8,78,59,34,30.02,29.33,8,2,16,0.00
2013-11-25,44.8,36.4,25.9,37.3,25.5,15.0,99,67,38,29.87,29.57,2,0,8,0.53
2013-11-26,45.3,39.5,34.5,45.1,39.0,31.0,99,98,87,29.57,29.26,9,2,17,0.93
2013-11-27,36.1,30.8,19.0,31.0,21.4,12.9,86,68,51,29.80,29.35,8,2,17,0.00
2013-11-28,48.2,27.9,15.3,25.1,18.5,12.6,92,71,34,29.93,29.79,2,0,8,0.00
2013-11-29,55.4,42.4,21.4,30.8,26.2,19.5,93,58,36,30.00,29.91,3,0,6,0.00
2013-11-30,54.9,54.9,54.9,29.7,29.7,29.7,38,38,38,29.91,29.91,0,0,4,0.00
2013-12-1,54.9,54.9,54.9,29.7,29.7,29.7,38,38,38,29.91,29.91,0,0,4,0.00
2013-12-2,54.9,54.9,54.9,29.7,29.7,29.7,38,38,38,29.91,29.91,0,0,4,0.00
2013-12-3,54.9,54.9,54.9,29.7,29.7,29.7,38,38,38,29.91,29.91,0,0,4,0.00
2013-12-4,54.9,54.9,54.9,29.7,29.7,29.7,38,38,38,29.91,29.91,0,0,4,0.00
2013-12-5,54.9,54.9,54.9,29.7,29.7,29.7,38,38,38,29.91,29.91,0,0,4,0.00
2013-12-7,34.9,33.5,32.7,33.2,31.8,30.9,95,93,92,29.92,29.75,7,2,13,1.26
2013-12-8,48.7,41.2,34.9,48.5,40.8,33.3,99,99,94,29.76,29.56,2,0,4,0.76
2013-12-9,47.8,40.1,33.8,47.6,39.7,33.6,99,98,94,32.61,29.55,117,1,117,0.25
2013-12-10,42.1,32.9,25.0,33.6,29.9,24.6,99,90,69,29.87,29.56,4,1,11,0.13
2013-12-11,51.3,34.9,21.4,34.5,27.1,21.2,99,77,38,29.96,29.86,4,0,8,0.00
2013-12-12,41.9,29.5,21.4,27.7,19.6,15.3,89,69,37,30.07,29.88,5,1,11,0.00
2013-12-13,53.1,36.6,19.8,31.4,26.1,17.3,92,68,42,29.88,29.57,2,0,5,0.00
2013-12-14,53.4,46.2,37.4,53.0,44.2,30.8,99,93,59,29.58,29.31,4,1,11,0.35
2013-12-15,37.6,35.2,34.0,35.0,32.1,31.1,95,89,86,29.70,29.49,4,1,9,0.00
2013-12-16,35.1,35.1,35.1,31.3,31.3,31.3,86,86,86,29.70,29.70,2,2,6,0.00
2013-12-17,35.1,35.1,35.1,31.3,31.3,31.3,86,86,86,29.70,29.70,2,2,6,0.00
2013-12-18,35.1,35.1,35.1,31.3,31.3,31.3,86,86,86,29.70,29.70,2,2,6,0.00
2013-12-19,35.1,35.1,35.1,31.3,31.3,31.3,86,86,86,29.70,29.70,2,2,6,0.00
2013-12-20,35.1,35.1,35.1,31.3,31.3,31.3,86,86,86,29.70,29.70,2,2,6,0.00
2013-12-21,35.1,35.1,35.1,31.3,31.3,31.3,86,86,86,29.70,29.70,2,2,6,0.00
2013-12-22,35.1,35.1,35.1,31.3,31.3,31.3,86,86,86,29.70,29.70,2,2,6,0.00
2013-12-23,35.1,35.1,35.1,31.3,31.3,31.3,86,86,86,29.70,29.70,2,2,6,0.00
2013-12-24,35.1,35.1,35.1,31.3,31.3,31.3,86,86,86,29.70,29.70,2,2,6,0.00
2013-12-25,35.1,35.1,35.1,31.3,31.3,31.3,86,86,86,29.70,29.70,2,2,6,0.00
2013-12-26,35.1,35.1,35.1,31.3,31.3,31.3,86,86,86,29.70,29.70,2,2,6,0.00
2013-12-27,35.1,35.1,35.1,31.3,31.3,31.3,86,86,86,29.70,29.70,2,2,6,0.00
2013-12-28,35.1,35.1,35.1,31.3,31.3,31.3,86,86,86,29.70,29.70,2,2,6,0.00
2013-12-29,35.1,35.1,35.1,31.3,31.3,31.3,86,86,86,29.70,29.70,2,2,6,0.00
2013-12-30,37.6,34.5,31.6,32.6,31.6,30.1,95,89,80,30.14,29.91,4,0,6,1.37
2013-12-31,44.2,33.0,26.8,32.1,28.6,25.7,99,85,60,30.22,30.02,4,0,8,0.00
2014-1-1,53.8,36.6,24.3,38.5,30.9,24.0,99,82,54,30.07,29.86,2,0,4,0.00
2014-1-2,47.8,31.2,21.4,47.6,26.4,13.5,99,82,69,30.06,29.60,5,2,13,0.26